createdAt,value
2022-10-17T00:00:40.246Z,8.10
2022-10-17T00:04:01.746Z,8.03
2022-10-17T00:07:03.590Z,7.97
2022-10-17T00:10:06.897Z,7.93
2022-10-17T00:13:09.472Z,7.93
2022-10-17T00:16:11.253Z,7.94
2022-10-17T00:19:12.860Z,7.93
2022-10-17T00:22:14.496Z,7.95
2022-10-17T00:25:16.302Z,7.94
2022-10-17T00:28:17.854Z,7.85
2022-10-17T00:31:20.192Z,7.78
2022-10-17T00:34:22.034Z,7.78
2022-10-17T00:37:23.806Z,7.88
2022-10-17T00:40:25.613Z,7.88
2022-10-17T00:43:27.665Z,7.86
2022-10-17T00:46:31.965Z,7.85
2022-10-17T00:49:36.173Z,7.79
2022-10-17T00:52:37.888Z,7.75
2022-10-17T00:55:46.371Z,7.70
2022-10-17T00:58:48.501Z,7.72
2022-10-17T01:02:13.637Z,7.71
2022-10-17T01:05:16.266Z,7.71
2022-10-17T01:08:17.960Z,7.62
2022-10-17T01:11:40.235Z,7.56
2022-10-17T01:15:06.815Z,7.60
2022-10-17T01:18:08.588Z,7.60
2022-10-17T01:21:32.136Z,7.59
2022-10-17T01:24:56.395Z,7.60
2022-10-17T01:28:19.526Z,7.64
2022-10-17T01:31:43.853Z,7.62
2022-10-17T01:34:55.106Z,7.58
2022-10-17T01:38:14.722Z,7.50
2022-10-17T01:41:35.878Z,7.43
2022-10-17T01:44:58.870Z,7.26
2022-10-17T01:48:05.671Z,7.08
2022-10-17T01:51:18.763Z,7.05
2022-10-17T01:54:27.517Z,7.05
2022-10-17T01:57:33.109Z,7.07
2022-10-17T02:00:35.799Z,7.10
2022-10-17T02:03:39.942Z,7.13
2022-10-17T02:06:41.586Z,7.17
2022-10-17T02:09:43.460Z,7.17
2022-10-17T02:13:04.053Z,7.15
2022-10-17T02:16:15.110Z,7.13
2022-10-17T02:19:41.431Z,7.10
2022-10-17T02:22:49.978Z,7.03
2022-10-17T02:26:00.263Z,6.95
2022-10-17T02:29:21.974Z,6.91
2022-10-17T02:32:40.754Z,6.86
2022-10-17T02:35:47.230Z,6.82
2022-10-17T02:38:50.505Z,6.79
2022-10-17T02:41:52.971Z,6.84
2022-10-17T02:44:55.557Z,6.90
2022-10-17T02:48:12.416Z,6.88
2022-10-17T02:51:28.051Z,6.84
2022-10-17T02:54:38.149Z,6.81
2022-10-17T02:57:45.950Z,6.80
2022-10-17T03:00:47.793Z,6.77
2022-10-17T03:03:50.619Z,6.73
2022-10-17T03:06:52.378Z,6.71
2022-10-17T03:09:54.153Z,6.70
2022-10-17T03:12:56.745Z,6.68
2022-10-17T03:15:58.505Z,6.65
2022-10-17T03:19:00.108Z,6.63
2022-10-17T03:22:01.897Z,6.61
2022-10-17T03:25:03.826Z,6.57
2022-10-17T03:28:05.964Z,6.52
2022-10-17T03:31:09.542Z,6.47
2022-10-17T03:34:11.510Z,6.43
2022-10-17T03:41:55.660Z,6.40
2022-10-17T03:44:57.472Z,6.39
2022-10-17T05:05:01.984Z,4.97
2022-10-17T05:08:09.849Z,4.99
2022-10-17T05:11:23.171Z,5.01
2022-10-17T05:14:24.964Z,5.09
2022-10-17T05:17:26.771Z,5.15
2022-10-17T05:20:28.589Z,5.18
2022-10-17T05:23:30.946Z,5.27
2022-10-17T05:26:32.655Z,5.40
2022-10-17T05:29:34.811Z,5.67
2022-10-17T05:32:36.777Z,6.14
2022-10-17T05:35:38.384Z,6.62
2022-10-17T05:38:39.949Z,7.04
2022-10-17T05:41:41.692Z,7.30
2022-10-17T05:44:43.394Z,7.55
2022-10-17T05:47:46.166Z,7.80
2022-10-17T05:50:47.926Z,8.17
2022-10-17T05:53:49.617Z,8.58
2022-10-17T05:56:55.788Z,8.98
2022-10-17T05:59:57.507Z,9.31
2022-10-17T06:02:59.202Z,9.57
2022-10-17T06:06:09.485Z,9.82
2022-10-17T06:09:11.852Z,10.13
2022-10-17T06:12:13.637Z,10.53
2022-10-17T06:15:15.450Z,10.97
2022-10-17T06:18:17.188Z,11.39
2022-10-17T06:21:27.108Z,11.96
2022-10-17T06:24:28.892Z,12.59
2022-10-17T06:27:30.711Z,12.62
2022-10-17T06:30:32.448Z,12.34
2022-10-17T06:33:34.446Z,12.24
2022-10-17T06:36:36.146Z,12.09
2022-10-17T06:39:37.912Z,12.06
2022-10-17T06:42:39.750Z,12.03
2022-10-17T06:45:42.000Z,12.03
2022-10-17T06:48:43.856Z,12.19
2022-10-17T06:51:45.944Z,12.43
2022-10-17T06:54:47.596Z,12.59
2022-10-17T06:57:49.375Z,12.64
2022-10-17T07:00:51.196Z,12.69
2022-10-17T07:03:53.120Z,12.73
2022-10-17T07:06:54.825Z,12.84
2022-10-17T07:09:56.705Z,12.98
2022-10-17T07:12:58.291Z,13.14
2022-10-17T07:16:01.871Z,13.38
2022-10-17T07:19:03.787Z,13.62
2022-10-17T07:22:06.361Z,14.13
2022-10-17T07:25:09.151Z,14.60
2022-10-17T07:28:10.910Z,14.95
2022-10-17T07:31:15.856Z,15.34
2022-10-17T07:34:18.484Z,15.70
2022-10-17T07:37:20.048Z,16.06
2022-10-17T07:40:22.382Z,16.26
2022-10-17T07:43:25.434Z,16.54
2022-10-17T07:46:27.204Z,16.88
2022-10-17T07:49:29.432Z,17.19
2022-10-17T07:52:32.061Z,17.49
2022-10-17T07:55:33.977Z,17.94
2022-10-17T07:58:36.780Z,18.47
2022-10-17T08:01:38.536Z,18.77
2022-10-17T08:04:40.297Z,19.10
2022-10-17T08:07:41.988Z,19.26
2022-10-17T08:10:43.714Z,19.35
2022-10-17T08:13:45.361Z,19.67
2022-10-17T08:16:47.103Z,19.94
2022-10-17T08:19:48.718Z,20.32
2022-10-17T08:22:54.539Z,20.71
2022-10-17T08:25:59.842Z,21.19
2022-10-17T08:29:01.780Z,21.62
2022-10-17T08:32:05.418Z,22.04
2022-10-17T08:35:08.746Z,22.54
2022-10-17T08:38:12.306Z,23.16
2022-10-17T08:41:53.464Z,23.66
2022-10-17T08:45:14.756Z,24.38
2022-10-17T08:48:19.512Z,24.88
2022-10-17T08:51:24.816Z,25.30
2022-10-17T08:54:40.510Z,25.77
2022-10-17T08:57:43.009Z,26.16
2022-10-17T09:00:59.134Z,26.28
2022-10-17T09:04:03.991Z,26.34
2022-10-17T09:07:23.024Z,26.66
2022-10-17T09:10:53.949Z,27.19
2022-10-17T09:14:15.580Z,27.34
2022-10-17T09:17:39.010Z,27.45
2022-10-17T09:20:45.116Z,27.47
2022-10-17T09:23:59.555Z,27.52
2022-10-17T09:27:40.985Z,27.94
2022-10-17T09:30:57.260Z,28.13
2022-10-17T09:34:01.714Z,28.50
2022-10-17T09:37:03.718Z,29.05
2022-10-17T09:40:07.956Z,29.08
2022-10-17T09:43:12.013Z,29.06
2022-10-17T09:46:25.850Z,29.57
2022-10-17T09:49:37.152Z,29.47
2022-10-17T09:52:48.653Z,29.10
2022-10-17T09:55:56.279Z,29.54
2022-10-17T09:58:59.155Z,29.70
2022-10-17T10:02:13.070Z,29.07
2022-10-17T10:05:18.034Z,29.05
2022-10-17T10:08:21.491Z,29.19
2022-10-17T10:11:26.679Z,29.13
2022-10-17T10:14:33.673Z,29.22
2022-10-17T10:17:41.996Z,29.67
2022-10-17T10:20:46.964Z,30.27
2022-10-17T10:24:12.621Z,30.72
2022-10-17T10:27:17.102Z,30.98
2022-10-17T10:30:28.348Z,31.01
2022-10-17T10:33:30.908Z,30.50
2022-10-17T10:37:25.327Z,30.49
2022-10-17T10:40:33.381Z,30.74
2022-10-17T10:43:40.530Z,30.96
2022-10-17T10:46:42.290Z,30.80
2022-10-17T10:49:45.421Z,31.11
2022-10-17T10:52:56.690Z,30.95
2022-10-17T10:56:11.675Z,30.94
2022-10-17T10:59:28.529Z,30.59
2022-10-17T11:03:13.012Z,30.74
2022-10-17T11:06:20.614Z,31.04
2022-10-17T11:09:33.016Z,30.70
2022-10-17T11:12:46.901Z,30.30
2022-10-17T11:15:58.278Z,30.34
2022-10-17T11:19:05.003Z,30.39
2022-10-17T11:22:24.021Z,30.47
2022-10-17T11:25:37.450Z,29.92
2022-10-17T11:28:39.181Z,29.78
2022-10-17T11:31:46.351Z,29.55
2022-10-17T11:34:51.696Z,29.28
2022-10-17T11:38:17.200Z,28.64
2022-10-17T11:41:38.793Z,28.09
2022-10-17T11:44:41.708Z,27.33
2022-10-17T11:47:49.890Z,26.70
2022-10-17T11:54:35.539Z,25.87
2022-10-17T11:57:46.678Z,25.52
2022-10-17T12:00:55.410Z,25.29
2022-10-17T12:04:31.529Z,25.08
2022-10-17T12:07:56.865Z,24.83
2022-10-17T12:11:04.469Z,24.59
2022-10-17T12:14:45.800Z,24.49
2022-10-17T12:18:01.062Z,24.40
2022-10-17T12:21:03.231Z,24.34
2022-10-17T12:24:05.358Z,24.29
2022-10-17T12:27:30.973Z,24.24
2022-10-17T12:31:01.332Z,24.15
2022-10-17T12:34:04.613Z,24.15
2022-10-17T12:37:11.443Z,24.19
2022-10-17T12:40:47.754Z,24.14
2022-10-17T12:43:53.205Z,24.09
2022-10-17T12:47:10.705Z,24.17
2022-10-17T12:51:34.261Z,24.34
2022-10-17T12:54:37.894Z,24.46
2022-10-17T12:57:51.882Z,24.50
2022-10-17T13:01:24.969Z,24.53
2022-10-17T13:04:18.199Z,24.54
2022-10-17T13:07:22.335Z,24.59
2022-10-17T13:10:28.303Z,24.76
2022-10-17T13:13:48.940Z,24.88
2022-10-17T13:17:27.661Z,24.92
2022-10-17T13:20:31.858Z,24.94
2022-10-17T13:23:36.973Z,25.05
2022-10-17T13:26:45.628Z,25.20
2022-10-17T13:29:47.389Z,25.23
2022-10-17T13:32:49.337Z,25.12
2022-10-17T13:36:06.419Z,25.00
2022-10-17T13:39:13.109Z,24.91
2022-10-17T13:42:23.380Z,24.71
2022-10-17T13:45:37.469Z,24.48
2022-10-17T13:48:39.419Z,24.30
2022-10-17T13:51:50.320Z,24.18
2022-10-17T13:54:53.786Z,24.08
2022-10-17T13:57:55.411Z,23.96
2022-10-17T14:00:57.460Z,23.87
2022-10-17T14:04:20.195Z,23.80
2022-10-17T14:07:26.826Z,23.76
2022-10-17T14:10:34.162Z,23.73
2022-10-17T14:13:36.211Z,23.69
2022-10-17T14:16:40.372Z,23.63
2022-10-17T14:19:42.179Z,23.60
2022-10-17T14:22:47.276Z,23.58
2022-10-17T14:26:11.819Z,23.57
2022-10-17T14:29:24.356Z,23.56
2022-10-17T14:32:27.590Z,23.55
2022-10-17T14:35:41.522Z,23.53
2022-10-17T14:38:49.220Z,23.56
2022-10-17T14:41:52.186Z,23.51
2022-10-17T14:44:54.835Z,23.52
2022-10-17T14:48:04.649Z,23.56
2022-10-17T14:51:15.402Z,23.53
2022-10-17T14:54:26.254Z,23.55
2022-10-17T14:57:49.825Z,23.55
2022-10-17T15:00:51.791Z,23.56
2022-10-17T15:03:53.709Z,23.59
2022-10-17T15:06:55.541Z,23.35
2022-10-17T15:09:57.222Z,23.24
2022-10-17T15:13:27.945Z,23.41
2022-10-17T15:16:30.897Z,23.33
2022-10-17T15:19:32.658Z,23.20
2022-10-17T15:22:36.657Z,22.99
2022-10-17T15:25:39.211Z,22.72
2022-10-17T15:28:41.104Z,22.44
2022-10-17T15:31:43.115Z,22.09
2022-10-17T15:34:45.148Z,21.71
2022-10-17T15:37:47.079Z,21.28
2022-10-17T15:40:51.154Z,20.78
2022-10-17T15:43:53.125Z,20.41
2022-10-17T15:46:56.398Z,20.10
2022-10-17T15:49:58.751Z,19.72
2022-10-17T15:53:00.448Z,19.47
2022-10-17T15:56:02.628Z,19.27
2022-10-17T15:59:06.757Z,19.06
2022-10-17T16:02:14.568Z,18.85
2022-10-17T16:05:26.106Z,18.64
2022-10-17T16:08:28.385Z,18.43
2022-10-17T16:11:41.178Z,18.24
2022-10-17T16:14:43.244Z,18.01
2022-10-17T16:17:45.029Z,17.75
2022-10-17T16:20:47.224Z,17.46
2022-10-17T16:23:48.981Z,17.22
2022-10-17T16:26:51.225Z,16.94
2022-10-17T16:29:52.810Z,16.68
2022-10-17T16:32:55.966Z,16.51
2022-10-17T16:35:58.097Z,16.17
2022-10-17T16:38:59.777Z,15.82
2022-10-17T16:42:04.689Z,15.43
2022-10-17T16:45:06.686Z,15.19
2022-10-17T16:48:09.387Z,15.02
2022-10-17T16:51:12.635Z,14.85
2022-10-17T16:54:14.355Z,14.62
2022-10-17T16:57:16.001Z,14.39
2022-10-17T17:00:18.326Z,14.21
2022-10-17T17:03:20.125Z,14.13
2022-10-17T17:06:25.394Z,14.04
2022-10-17T17:09:27.111Z,13.94
2022-10-17T17:12:28.842Z,13.86
2022-10-17T17:15:30.497Z,13.79
2022-10-17T17:18:32.397Z,13.69
2022-10-17T17:21:35.103Z,13.63
2022-10-17T17:24:37.203Z,13.54
2022-10-17T17:27:38.950Z,13.49
2022-10-17T17:30:40.738Z,13.47
2022-10-17T17:33:43.114Z,13.39
2022-10-17T17:36:44.895Z,13.32
2022-10-17T17:39:46.717Z,13.20
2022-10-17T17:42:48.435Z,13.09
2022-10-17T17:45:50.239Z,12.98
2022-10-17T17:48:53.334Z,12.95
2022-10-17T17:51:55.085Z,12.89
2022-10-17T17:54:56.966Z,12.76
2022-10-17T17:57:58.864Z,12.71
2022-10-17T18:01:01.194Z,12.63
2022-10-17T18:04:03.857Z,12.64
2022-10-17T18:07:05.833Z,12.64
2022-10-17T18:10:08.466Z,12.61
2022-10-17T18:13:10.198Z,12.62
2022-10-17T18:16:16.903Z,12.62
2022-10-17T18:19:19.020Z,12.62
2022-10-17T18:22:20.930Z,12.69
2022-10-17T18:25:22.801Z,12.72
2022-10-17T18:28:24.841Z,12.66
2022-10-17T18:31:32.370Z,12.59
2022-10-17T18:34:34.130Z,12.48
2022-10-17T18:37:35.758Z,12.36
2022-10-17T18:40:38.055Z,12.28
2022-10-17T18:43:41.582Z,12.10
2022-10-17T18:46:43.270Z,11.77
2022-10-17T18:49:45.158Z,11.59
2022-10-17T18:52:48.203Z,11.51
2022-10-17T18:55:51.388Z,11.42
2022-10-17T18:58:53.595Z,11.41
2022-10-17T19:01:55.452Z,11.34
2022-10-17T19:04:57.436Z,11.28
2022-10-17T19:07:59.557Z,11.23
2022-10-17T19:11:13.439Z,11.20
2022-10-17T19:14:15.224Z,11.14
2022-10-17T19:17:17.326Z,11.08
2022-10-17T19:20:18.951Z,11.03
2022-10-17T19:23:20.931Z,10.95
2022-10-17T19:26:23.446Z,10.85
2022-10-17T19:29:28.166Z,10.84
2022-10-17T19:32:31.259Z,10.81
2022-10-17T19:35:34.941Z,10.69
2022-10-17T19:38:36.910Z,10.55
2022-10-17T19:41:43.058Z,10.48
2022-10-17T19:44:44.687Z,10.39
2022-10-17T19:47:46.271Z,10.38
2022-10-17T19:50:49.954Z,10.36
2022-10-17T19:53:52.795Z,10.30
2022-10-17T19:56:54.546Z,10.29
2022-10-17T19:59:56.883Z,10.29
2022-10-17T20:03:02.656Z,10.26
2022-10-17T20:06:04.873Z,10.26
2022-10-17T20:09:08.810Z,10.31
2022-10-17T20:12:12.971Z,10.36
2022-10-17T20:15:14.819Z,10.41
2022-10-17T20:18:16.818Z,10.39
2022-10-17T20:21:21.693Z,10.33
2022-10-17T20:24:23.413Z,10.25
2022-10-17T20:27:27.648Z,10.26
2022-10-17T20:30:29.709Z,10.26
2022-10-17T20:33:32.131Z,10.25
2022-10-17T20:36:37.324Z,10.20
2022-10-17T20:39:39.405Z,10.14
2022-10-17T20:42:41.087Z,10.08
2022-10-17T20:45:51.286Z,10.05
2022-10-17T20:48:54.827Z,10.02
2022-10-17T20:51:56.759Z,9.97
2022-10-17T20:54:58.372Z,9.94
2022-10-17T20:58:00.153Z,9.89
2022-10-17T21:01:08.123Z,9.83
2022-10-17T21:07:31.690Z,9.38
2022-10-17T21:10:35.820Z,9.30
2022-10-17T21:13:38.346Z,9.28
2022-10-17T21:16:41.334Z,9.27
2022-10-17T21:19:43.082Z,9.26
2022-10-17T21:22:44.777Z,9.25
2022-10-17T21:25:46.426Z,9.25
2022-10-17T21:28:48.908Z,9.25
2022-10-17T21:31:51.335Z,9.23
2022-10-17T21:34:53.004Z,9.20
2022-10-17T21:37:54.724Z,9.15
2022-10-17T21:40:56.322Z,9.08
2022-10-17T21:44:00.560Z,8.96
2022-10-17T21:47:02.825Z,8.80
2022-10-17T21:50:04.858Z,8.67
2022-10-17T21:53:06.493Z,8.56
2022-10-17T21:56:11.722Z,8.38
2022-10-17T21:59:13.363Z,8.22
2022-10-17T22:02:16.433Z,8.18
2022-10-17T22:05:18.081Z,8.18
2022-10-17T22:08:19.790Z,8.19
2022-10-17T22:11:28.409Z,8.18
2022-10-17T22:14:30.332Z,8.23
2022-10-17T22:17:32.330Z,8.18
2022-10-17T22:20:34.934Z,8.12
2022-10-17T22:23:38.317Z,8.12
2022-10-17T22:26:41.498Z,8.12
2022-10-17T22:29:46.268Z,8.09
2022-10-17T22:32:47.999Z,8.06
2022-10-17T22:35:49.730Z,8.05
2022-10-17T22:38:51.391Z,8.03
2022-10-17T22:41:53.009Z,8.00
2022-10-17T22:44:54.665Z,7.97
2022-10-17T22:47:56.182Z,7.92
2022-10-17T22:50:59.152Z,7.85
2022-10-17T22:54:01.036Z,7.74
2022-10-17T22:57:02.713Z,7.68
2022-10-17T23:00:06.345Z,7.66
2022-10-17T23:03:08.087Z,7.64
2022-10-17T23:06:29.558Z,7.66
2022-10-17T23:09:46.581Z,7.68
2022-10-17T23:12:48.288Z,7.67
2022-10-17T23:15:51.630Z,7.68
2022-10-17T23:18:53.216Z,7.68
2022-10-17T23:21:54.927Z,7.66
2022-10-17T23:24:56.587Z,7.66
2022-10-17T23:27:58.290Z,7.68
2022-10-17T23:31:09.183Z,7.67
2022-10-17T23:34:10.877Z,7.65
2022-10-17T23:37:12.517Z,7.64
2022-10-17T23:40:14.050Z,7.64
2022-10-17T23:43:15.605Z,7.66
2022-10-17T23:46:17.668Z,7.67
2022-10-17T23:49:19.293Z,7.64
2022-10-17T23:52:20.893Z,7.52
2022-10-17T23:55:22.516Z,7.45
2022-10-17T23:58:24.144Z,7.42
